createdAt,value
2023-05-15T00:00:09.542Z,10.2
2023-05-15T00:03:10.135Z,10.1
2023-05-15T00:06:09.466Z,9.9
2023-05-15T00:09:09.485Z,9.8
2023-05-15T00:12:09.471Z,9.8
2023-05-15T00:15:09.474Z,9.8
2023-05-15T00:18:09.780Z,9.8
2023-05-15T00:21:09.617Z,9.8
2023-05-15T00:24:09.532Z,9.8
2023-05-15T00:27:09.521Z,9.8
2023-05-15T00:30:09.536Z,9.8
2023-05-15T00:33:09.709Z,9.7
2023-05-15T00:36:09.509Z,9.6
2023-05-15T00:39:09.561Z,9.6
2023-05-15T00:42:11.160Z,9.5
2023-05-15T00:45:09.542Z,9.4
2023-05-15T00:48:09.696Z,9.5
2023-05-15T00:51:09.467Z,9.6
2023-05-15T00:54:09.785Z,9.8
2023-05-15T00:57:09.594Z,9.8
2023-05-15T01:00:09.724Z,9.7
2023-05-15T01:03:10.528Z,9.8
2023-05-15T01:06:09.561Z,9.8
2023-05-15T01:09:09.496Z,9.8
2023-05-15T01:12:09.604Z,9.8
2023-05-15T01:15:09.501Z,9.8
2023-05-15T01:18:10.119Z,9.6
2023-05-15T01:21:09.621Z,9.4
2023-05-15T01:24:09.491Z,9.3
2023-05-15T01:27:09.592Z,9.2
2023-05-15T01:30:09.561Z,9.1
2023-05-15T01:33:09.895Z,8.9
2023-05-15T01:36:09.517Z,8.8
2023-05-15T01:39:09.561Z,8.8
2023-05-15T01:42:09.535Z,8.6
2023-05-15T01:45:10.267Z,8.4
2023-05-15T01:48:09.968Z,8.2
2023-05-15T01:51:09.485Z,8.1
2023-05-15T01:54:09.551Z,8
2023-05-15T01:57:09.630Z,8.1
2023-05-15T02:00:09.783Z,7.9
2023-05-15T02:03:10.296Z,7.9
2023-05-15T02:06:09.580Z,7.8
2023-05-15T02:09:09.536Z,7.7
2023-05-15T02:12:09.605Z,7.6
2023-05-15T02:15:09.585Z,7.6
2023-05-15T02:18:09.895Z,7.4
2023-05-15T02:21:09.609Z,7.4
2023-05-15T02:24:09.492Z,7.3
2023-05-15T02:27:09.540Z,7.3
2023-05-15T02:30:09.555Z,7.3
2023-05-15T02:33:10.108Z,7.4
2023-05-15T02:36:09.527Z,7.4
2023-05-15T02:39:09.479Z,7.4
2023-05-15T02:42:09.519Z,7.4
2023-05-15T02:45:09.472Z,7.4
2023-05-15T02:48:09.831Z,7.4
2023-05-15T02:51:09.519Z,7.4
2023-05-15T02:54:09.633Z,7.3
2023-05-15T02:57:09.499Z,7.2
2023-05-15T03:00:09.694Z,7.2
2023-05-15T03:03:09.833Z,7.3
2023-05-15T03:06:09.634Z,7.2
2023-05-15T03:09:09.540Z,7.1
2023-05-15T03:12:09.492Z,6.9
2023-05-15T03:15:09.567Z,6.8
2023-05-15T03:18:09.907Z,6.7
2023-05-15T03:21:09.480Z,6.5
2023-05-15T03:24:09.556Z,6.4
2023-05-15T03:27:09.502Z,6.4
2023-05-15T03:30:09.919Z,6.4
2023-05-15T03:33:09.798Z,6.4
2023-05-15T03:36:09.529Z,6.6
2023-05-15T03:39:09.603Z,6.7
2023-05-15T03:42:09.556Z,6.7
2023-05-15T03:45:09.505Z,6.7
2023-05-15T03:48:10.073Z,6.6
2023-05-15T03:51:09.570Z,6.5
2023-05-15T03:54:09.624Z,6.5
2023-05-15T03:57:09.514Z,6.6
2023-05-15T04:00:09.792Z,6.7
2023-05-15T04:03:10.201Z,6.9
2023-05-15T04:06:09.655Z,7
2023-05-15T04:09:09.649Z,7.1
2023-05-15T04:12:09.694Z,7.1
2023-05-15T04:15:09.604Z,7.1
2023-05-15T04:18:09.812Z,7.1
2023-05-15T04:21:09.601Z,7.1
2023-05-15T04:24:09.588Z,7.3
2023-05-15T04:27:09.857Z,7.4
2023-05-15T04:30:09.668Z,7.7
2023-05-15T04:33:10.022Z,8.1
2023-05-15T04:36:09.521Z,8.4
2023-05-15T04:39:09.627Z,8.8
2023-05-15T04:42:09.520Z,9
2023-05-15T04:45:10.054Z,9.6
2023-05-15T04:48:09.924Z,10.4
2023-05-15T04:51:09.551Z,11.2
2023-05-15T04:54:09.592Z,11.9
2023-05-15T04:57:09.530Z,11.8
2023-05-15T05:00:09.708Z,11.4
2023-05-15T05:03:10.065Z,11.1
2023-05-15T05:06:09.579Z,10.7
2023-05-15T05:09:09.525Z,10.5
2023-05-15T05:12:09.598Z,10.3
2023-05-15T05:15:09.640Z,10.3
2023-05-15T05:18:10.198Z,10.2
2023-05-15T05:21:09.501Z,10.2
2023-05-15T05:24:09.696Z,10.2
2023-05-15T05:27:09.705Z,10.3
2023-05-15T05:30:09.860Z,10.4
2023-05-15T05:33:10.052Z,10.5
2023-05-15T05:36:09.577Z,11.1
2023-05-15T05:39:09.544Z,11.6
2023-05-15T05:42:09.532Z,11.9
2023-05-15T05:45:09.643Z,12.1
2023-05-15T05:48:09.889Z,12.7
2023-05-15T05:51:09.684Z,13.9
2023-05-15T05:54:09.535Z,15.1
2023-05-15T05:57:09.576Z,15.8
2023-05-15T06:00:09.653Z,16.4
2023-05-15T06:03:10.427Z,17.2
2023-05-15T06:06:09.551Z,17.4
2023-05-15T06:09:09.593Z,17.1
2023-05-15T06:12:09.675Z,17.3
2023-05-15T06:15:09.592Z,17.9
2023-05-15T06:18:09.918Z,18.7
2023-05-15T06:21:09.557Z,19.3
2023-05-15T06:24:09.676Z,18.9
2023-05-15T06:27:09.623Z,18.1
2023-05-15T06:30:09.687Z,17.2
2023-05-15T06:33:10.320Z,16.3
2023-05-15T06:36:09.596Z,15.5
2023-05-15T06:39:09.549Z,15.1
2023-05-15T06:42:09.609Z,15.1
2023-05-15T06:45:09.833Z,15.1
2023-05-15T06:48:11.333Z,15.3
2023-05-15T06:51:09.567Z,15.3
2023-05-15T06:54:09.579Z,15.4
2023-05-15T06:57:09.654Z,15.4
2023-05-15T07:00:09.953Z,15.6
2023-05-15T07:03:09.767Z,15.8
2023-05-15T07:06:09.711Z,15.9
2023-05-15T07:09:09.813Z,16.1
2023-05-15T07:12:09.481Z,16.1
2023-05-15T07:15:09.553Z,16.2
2023-05-15T07:18:10.910Z,16.2
2023-05-15T07:21:09.600Z,16.4
2023-05-15T07:24:09.562Z,16.8
2023-05-15T07:27:09.643Z,16.9
2023-05-15T07:30:09.667Z,17.1
2023-05-15T07:33:09.979Z,17.4
2023-05-15T07:36:09.657Z,17.6
2023-05-15T07:39:09.652Z,17.2
2023-05-15T07:42:09.626Z,17.2
2023-05-15T07:45:09.966Z,17.4
2023-05-15T07:48:09.860Z,17.6
2023-05-15T07:51:09.620Z,17.7
2023-05-15T07:54:09.508Z,18.1
2023-05-15T07:57:09.603Z,18.2
2023-05-15T08:00:09.696Z,18.1
2023-05-15T08:03:10.519Z,18.3
2023-05-15T08:06:09.617Z,18.9
2023-05-15T08:09:09.566Z,19.4
2023-05-15T08:12:09.492Z,19.5
2023-05-15T08:15:09.704Z,19.9
2023-05-15T08:18:09.956Z,19.9
2023-05-15T08:21:13.270Z,20.3
2023-05-15T08:24:09.588Z,20.4
2023-05-15T08:27:09.558Z,20.6
2023-05-15T08:30:09.559Z,20.8
2023-05-15T08:33:10.125Z,21.2
2023-05-15T08:36:09.931Z,21
2023-05-15T08:39:09.629Z,21.4
2023-05-15T08:42:09.850Z,21.5
2023-05-15T08:45:09.620Z,21.4
2023-05-15T08:48:10.301Z,21.9
2023-05-15T08:51:09.510Z,22.6
2023-05-15T08:54:09.548Z,22.7
2023-05-15T08:57:09.612Z,22.5
2023-05-15T09:00:11.929Z,22.2
2023-05-15T09:03:10.268Z,22.6
2023-05-15T09:06:09.578Z,23.3
2023-05-15T09:09:09.599Z,23.9
2023-05-15T09:12:09.516Z,23.8
2023-05-15T09:15:09.550Z,24.3
2023-05-15T09:18:09.921Z,24.9
2023-05-15T09:21:09.561Z,25.1
2023-05-15T09:24:09.596Z,25.2
2023-05-15T09:27:09.537Z,25.1
2023-05-15T09:30:09.577Z,25.3
2023-05-15T09:33:10.016Z,25.2
2023-05-15T09:36:09.464Z,25
2023-05-15T09:39:09.667Z,24.9
2023-05-15T09:42:09.633Z,25.3
2023-05-15T09:45:09.689Z,25.4
2023-05-15T09:48:10.482Z,24.6
2023-05-15T09:51:09.845Z,24.8
2023-05-15T09:54:09.635Z,25.1
2023-05-15T09:57:09.660Z,24.9
2023-05-15T10:00:09.624Z,25.1
2023-05-15T10:03:09.968Z,25.4
2023-05-15T10:06:09.961Z,25.6
2023-05-15T10:09:09.666Z,25.3
2023-05-15T10:12:09.564Z,25
2023-05-15T10:15:09.904Z,25.7
2023-05-15T10:18:10.029Z,25.8
2023-05-15T10:21:09.630Z,26
2023-05-15T10:24:09.647Z,26.4
2023-05-15T10:27:09.565Z,25.8
2023-05-15T13:00:09.994Z,18.1
2023-05-15T13:03:10.255Z,18.6
2023-05-15T13:06:09.614Z,18.9
2023-05-15T13:09:09.703Z,19.1
2023-05-15T13:12:09.494Z,19.4
2023-05-15T13:15:09.496Z,19.6
2023-05-15T13:18:10.030Z,19.8
2023-05-15T13:21:10.274Z,20.1
2023-05-15T13:24:09.630Z,20.3
2023-05-15T13:27:09.632Z,20.3
2023-05-15T13:30:09.658Z,20.4
2023-05-15T13:33:10.168Z,20.4
2023-05-15T13:36:09.500Z,20.4
2023-05-15T13:39:09.564Z,20.6
2023-05-15T13:42:09.609Z,20.6
2023-05-15T13:45:09.589Z,20.6
2023-05-15T13:48:10.036Z,20.8
2023-05-15T13:51:09.507Z,20.8
2023-05-15T13:54:09.628Z,20.9
2023-05-15T13:57:09.791Z,21
2023-05-15T14:00:09.882Z,21
2023-05-15T14:03:11.278Z,21.2
2023-05-15T14:06:09.638Z,21.5
2023-05-15T14:09:09.531Z,22.4
2023-05-15T14:12:09.524Z,22.7
2023-05-15T14:15:09.868Z,23.2
2023-05-15T14:18:09.926Z,22.6
2023-05-15T14:21:09.752Z,21.4
2023-05-15T14:24:09.569Z,21.2
2023-05-15T14:27:09.561Z,21.3
2023-05-15T14:30:09.611Z,22.2
2023-05-15T14:33:09.923Z,22.4
2023-05-15T14:36:09.634Z,21.5
2023-05-15T14:39:09.737Z,21.1
2023-05-15T14:42:09.598Z,20.9
2023-05-15T14:45:09.623Z,21.3
2023-05-15T14:48:09.874Z,21.5
2023-05-15T14:51:09.655Z,21.7
2023-05-15T14:54:09.586Z,22
2023-05-15T14:57:09.784Z,22.2
2023-05-15T15:00:09.914Z,22.6
2023-05-15T15:03:10.076Z,22.4
2023-05-15T15:06:09.636Z,22.4
2023-05-15T15:09:09.537Z,22.3
2023-05-15T15:12:09.654Z,22
2023-05-15T15:15:09.545Z,21.8
2023-05-15T15:18:10.080Z,21.8
2023-05-15T15:21:09.553Z,21.2
2023-05-15T15:24:09.623Z,20.6
2023-05-15T15:27:09.652Z,20.2
2023-05-15T15:30:09.677Z,19.8
2023-05-15T15:33:10.045Z,19.9
2023-05-15T15:36:09.623Z,20
2023-05-15T15:39:09.482Z,19.8
2023-05-15T15:42:12.190Z,19.3
2023-05-15T15:45:09.646Z,18.9
2023-05-15T15:48:09.845Z,18.6
2023-05-15T15:51:09.475Z,18.3
2023-05-15T15:54:09.655Z,18
2023-05-15T15:57:09.544Z,17.7
2023-05-15T16:00:09.893Z,17.3
2023-05-15T16:03:10.392Z,17.2
2023-05-15T16:06:09.653Z,17
2023-05-15T16:09:09.541Z,17.1
2023-05-15T16:12:09.573Z,17.4
2023-05-15T16:15:32.712Z,17.8
2023-05-15T16:18:09.955Z,18.3
2023-05-15T16:21:09.536Z,18.8
2023-05-15T16:24:09.640Z,19.3
2023-05-15T16:27:09.691Z,19.4
2023-05-15T16:30:09.786Z,19.5
2023-05-15T16:33:09.939Z,19.5
2023-05-15T16:36:09.720Z,19.3
2023-05-15T16:39:09.559Z,19.1
2023-05-15T16:42:11.847Z,18.8
2023-05-15T16:45:09.596Z,18.9
2023-05-15T16:48:10.143Z,18.9
2023-05-15T16:51:09.597Z,19
2023-05-15T16:54:09.626Z,19
2023-05-15T16:57:09.515Z,19.5
2023-05-15T17:00:09.714Z,19.6
2023-05-15T17:03:10.291Z,19.6
2023-05-15T17:06:09.600Z,19.3
2023-05-15T17:09:09.528Z,19.3
2023-05-15T17:12:09.571Z,19.4
2023-05-15T17:15:09.727Z,19.3
2023-05-15T17:18:09.813Z,19.1
2023-05-15T17:21:09.566Z,19
2023-05-15T17:24:09.836Z,18.9
2023-05-15T17:27:09.534Z,18.8
2023-05-15T17:30:09.984Z,18.4
2023-05-15T17:33:09.798Z,18.3
2023-05-15T17:36:09.573Z,18.3
2023-05-15T17:39:09.789Z,18.1
2023-05-15T17:42:09.645Z,17.7
2023-05-15T17:45:09.676Z,17.5
2023-05-15T17:48:09.872Z,17.2
2023-05-15T17:51:09.490Z,17
2023-05-15T17:54:09.586Z,16.8
2023-05-15T17:57:09.564Z,16.5
2023-05-15T18:00:09.657Z,16.3
2023-05-15T18:03:10.626Z,16.1
2023-05-15T18:06:09.499Z,16
2023-05-15T18:09:09.705Z,15.8
2023-05-15T18:12:09.552Z,15.6
2023-05-15T18:15:09.772Z,15.4
2023-05-15T18:18:10.243Z,15.4
2023-05-15T18:21:09.621Z,15.3
2023-05-15T18:24:09.463Z,15.2
2023-05-15T18:27:09.558Z,15.1
2023-05-15T18:30:09.657Z,15.1
2023-05-15T18:33:09.906Z,14.9
2023-05-15T18:36:12.454Z,14.9
2023-05-15T18:39:09.543Z,14.9
2023-05-15T18:42:09.579Z,14.9
2023-05-15T18:45:09.704Z,14.9
2023-05-15T18:48:09.870Z,14.9
2023-05-15T18:51:09.568Z,14.9
2023-05-15T18:54:09.515Z,14.8
2023-05-15T18:57:09.595Z,14.8
2023-05-15T19:00:09.693Z,14.7
2023-05-15T19:03:10.904Z,14.8
2023-05-15T19:06:09.524Z,14.8
2023-05-15T19:09:09.553Z,14.8
2023-05-15T19:12:09.556Z,14.8
2023-05-15T19:15:09.534Z,14.9
2023-05-15T19:18:09.757Z,14.9
2023-05-15T19:21:09.540Z,14.9
2023-05-15T19:24:09.491Z,14.9
2023-05-15T19:27:09.482Z,14.9
2023-05-15T19:30:09.663Z,14.9
2023-05-15T19:33:09.775Z,14.9
2023-05-15T19:36:09.606Z,14.9
2023-05-15T19:39:09.541Z,14.9
2023-05-15T19:42:09.503Z,14.7
2023-05-15T19:45:09.506Z,14.7
2023-05-15T19:48:09.837Z,14.7
2023-05-15T19:51:09.629Z,14.6
2023-05-15T19:54:09.546Z,14.6
2023-05-15T19:57:09.624Z,14.6
2023-05-15T20:00:09.630Z,14.6
2023-05-15T20:03:10.520Z,14.6
2023-05-15T20:06:09.580Z,14.6
2023-05-15T20:09:09.554Z,14.4
2023-05-15T20:12:10.057Z,14.4
2023-05-15T20:15:09.563Z,14.3
2023-05-15T20:18:10.045Z,14.2
2023-05-15T20:21:09.510Z,14.1
2023-05-15T20:24:09.511Z,13.9
2023-05-15T20:27:09.452Z,13.9
2023-05-15T20:30:09.622Z,13.8
2023-05-15T20:33:10.225Z,13.7
2023-05-15T20:36:09.449Z,13.6
2023-05-15T20:39:09.797Z,13.4
2023-05-15T20:42:09.608Z,13.4
2023-05-15T20:45:09.736Z,13.2
2023-05-15T20:48:09.889Z,13.1
2023-05-15T20:51:09.501Z,12.9
2023-05-15T20:54:09.479Z,12.8
2023-05-15T20:57:09.498Z,12.7
2023-05-15T21:00:09.586Z,12.6
2023-05-15T21:03:10.304Z,12.5
2023-05-15T21:06:09.508Z,12.4
2023-05-15T21:09:09.578Z,12.2
2023-05-15T21:12:09.508Z,12.1
2023-05-15T21:15:09.710Z,11.9
2023-05-15T21:18:09.996Z,11.9
2023-05-15T21:21:09.514Z,11.8
2023-05-15T21:24:09.526Z,11.8
2023-05-15T21:27:09.525Z,11.7
2023-05-15T21:30:09.592Z,11.6
2023-05-15T21:33:09.952Z,11.5
2023-05-15T21:36:09.522Z,11.4
2023-05-15T21:39:09.604Z,11.4
2023-05-15T21:42:09.583Z,11.3
2023-05-15T21:45:11.547Z,11.3
2023-05-15T21:48:09.910Z,11.2
2023-05-15T21:51:09.508Z,11.1
2023-05-15T21:54:09.816Z,11
2023-05-15T21:57:09.537Z,10.9
2023-05-15T22:00:10.243Z,10.8
2023-05-15T22:03:10.171Z,10.8
2023-05-15T22:06:09.561Z,10.6
2023-05-15T22:09:09.522Z,10.6
2023-05-15T22:12:09.480Z,10.5
2023-05-15T22:15:09.520Z,10.4
2023-05-15T22:18:09.900Z,10.3
2023-05-15T22:21:09.555Z,10.3
2023-05-15T22:24:09.504Z,10.2
2023-05-15T22:27:09.446Z,10.1
2023-05-15T22:30:09.656Z,10
2023-05-15T22:33:09.864Z,9.9
2023-05-15T22:36:09.545Z,9.8
2023-05-15T22:39:09.529Z,9.6
2023-05-15T22:42:09.533Z,9.6
2023-05-15T22:45:09.529Z,9.5
2023-05-15T22:48:09.931Z,9.4
2023-05-15T22:51:09.491Z,9.4
2023-05-15T22:54:09.568Z,9.4
2023-05-15T22:57:09.526Z,9.4
2023-05-15T23:00:09.671Z,9.4
2023-05-15T23:03:10.169Z,9.5
2023-05-15T23:06:09.504Z,9.4
2023-05-15T23:09:09.546Z,9.4
2023-05-15T23:12:09.636Z,9.5
2023-05-15T23:15:09.468Z,9.4
2023-05-15T23:18:09.973Z,9.4
2023-05-15T23:21:09.522Z,9.4
2023-05-15T23:24:09.511Z,9.5
2023-05-15T23:27:09.519Z,9.5
2023-05-15T23:30:09.540Z,9.4
2023-05-15T23:33:10.237Z,9.5
2023-05-15T23:36:09.502Z,9.4
2023-05-15T23:39:09.506Z,9.4
2023-05-15T23:42:09.548Z,9.4
2023-05-15T23:45:09.717Z,9.4
2023-05-15T23:48:09.807Z,9.4
2023-05-15T23:51:09.577Z,9.4
2023-05-15T23:54:09.537Z,9.4
2023-05-15T23:57:09.512Z,9.4
